AirNav   TITAN Aviation Fuels
 
 401 users online  

2IA0 Genesis Medical Center East Campus Heliport
Davenport, Iowa, USA

GOING TO DAVENPORT?


FAA INFORMATION EFFECTIVE 22 APRIL 2021

Location

FAA Identifier: 2IA0
Lat/Long: 41-32-33.2400N 090-33-21.4400W
41-32.554000N 090-33.357333W
41.5425667,-90.5559556
(estimated)
Elevation: 673 ft. / 205 m (estimated)
Variation: 01E (1985)
Time zone: UTC -5 (UTC -6 during Standard Time)
Zip code: 52803

Heliport Operations

Heliport use: Private use, MEDICAL.
Activation date: 12/1982
Control tower: no
ARTCC: CHICAGO CENTER
FSS: FORT DODGE FLIGHT SERVICE STATION
Attendance: CONTINUOUS
Wind indicator: yes
Segmented circle: yes
Lights: SS-SR

Heliport Communications

WX ASOS at DVN (4 nm N): 120.175 (563-388-2154)
WX ASOS at MLI (6 nm S): 121.2 (309-732-8731)

Nearby radio navigation aids

VOR radial/distance  VOR name  Freq  Var
CVAr194/10.5DAVENPORT VORTAC113.8004E
MZVr011/13.8MOLINE VOR/DME114.4005E
GBGr348/36.7GALESBURG VOR/DME109.8003E

 
NDB name  Hdg/Dist  Freq  Var  ID
HILLZ211/14.651700EFN ..-. -.

Heliport Services

Runway Information

Helipad H1

Dimensions: 100 x 100 ft. / 30 x 30 m
Surface: concrete
Runway edge lights: PERI
Latitude: 41-32.554000N
Longitude: 090-33.357333W
Elevation: 673.0 ft.
Traffic pattern: rightleft
Obstructions: road
PLINES TO NORTHEAST, EAST & SOUTHEAST MKD WITH ORANGE BALLS.

Heliport Ownership and Management from official FAA records

Ownership: Privately-owned
Owner: GENESIS MEDICAL CENTER
1227 E. RUSHOLME
DAVENPORT, IA 52803
Phone (563) 421-1611
Manager: KEVIN ROSSMILLER
1227 E. RUSHOLME
DAVENPORT, IA 52803
Phone (563) 421-1611

Additional Remarks

INGRESS/EGRESS 53 DEG- 73 DEG & 150 DEG-170 DEG.
FOR CD CTC CHICAGO ARTCC AT 630-906-8921.

Instrument Procedures

There are no published instrument procedures at 2IA0.

Some nearby airports with instrument procedures:

KDVN - Davenport Municipal Airport (4 nm N)
KMLI - Quad City International Airport (6 nm S)
KCWI - Clinton Municipal Airport (20 nm NE)
KMUT - Muscatine Municipal Airport (29 nm W)
8C4 - Mathews Memorial Airport (30 nm NW)
 
Loc | Ops | Rwys | IFR | FBO | Links
Com | Nav | Svcs | Stats | Notes
Area around 2IA0 (Genesis Medical Center East Campus Heliport)
 
Road maps at: MapQuest Bing Google
 
Aerial photo
No photo
 
Sectional chart

 
Airport distance calculator
Flying to Genesis Medical Center East Campus Heliport? Find the distance to fly.

From to 2IA0

Sunrise and sunset
Times for 11-May-2021
 Local
(UTC-5)
 Zulu
(UTC)
Morning civil twilight05:1710:17
Sunrise05:4810:48
Sunset20:0901:09
Evening civil twilight20:4001:40

Current date and time
Zulu (UTC)  11-May-2021 06:55:38
Local (UTC-5)  11-May-2021 01:55:38
 
METAR
KDVN 
5nm N 
110552Z AUTO 08006KT 10SM SCT060 SCT075 OVC100 08/04 A3025 RMK AO2 RAB03E15 SLP242 P0000 60000 T00830044 10128 20083 401720061 51013
KMLI 
6nm S 
110552Z AUTO 07009KT 10SM BKN044 BKN070 09/04 A3023 RMK AO2 SLP237 T00940044 10139 20094 401890050 51018
KCWI 
20nm NE 
110556Z AUTO 17003KT 10SM FEW040 BKN070 OVC085 08/06 A3024 RMK AO2 RAE19 SLP247 P0000 60000 T00780061 10128 20078 401670056 51011
TAF
KMLI 
6nm S 
110523Z 1106/1206 08007KT P6SM BKN050 FM111200 05012KT P6SM FEW060 BKN250 FM120000 VRB03KT P6SM SCT250
NOTAMs
Click for the latest NOTAMs
NOTAMs are issued by the DoD/FAA and will open in a separate window not controlled by AirNav.

 

 
 

Would you like to see your business listed on this page?

 If your business provides an interesting product or service to pilots, flight crews, aircraft, or users of the Genesis Medical Center East Campus Heliport, you should consider listing it here.  To start the listing process, click on the button below
 
Add a business
 

Other Pages about Genesis Medical Center East Campus Heliport

Update a link
 
Copyright © AirNav, LLC. All rights reserved. Privacy Policy  Contact